KUVA/UVA METAR and TAF weather

Enter ICAO airport designator
Station Type Date Time Source
KUVA METAR 2019/08/18 09:55 UTC NOAA

KUVA 180955Z AUTO 06007KT 10SM CLR 24/20 A2989 RMK AO2 T02420201


Station Type Date Time Source
KUVA Decoded METAR 2019/08/18 09:55 UTC NOAA

Station name not available
Aug 18, 2019 - 05:55 AM EDT / 2019.08.18 0955 UTC
Wind: from the ENE (060 degrees) at 8 MPH (7 KT):0
Visibility: 10 mile(s):0
Sky conditions: clear
Temperature: 75.6 F (24.2 C)
Dew Point: 68.2 F (20.1 C)
Relative Humidity: 77%
Pressure (altimeter): 29.89 in. Hg (1012 hPa)
ob: KUVA 180955Z AUTO 06007KT 10SM CLR 24/20 A2989 RMK AO2 T02420201
cycle: 10

Station Type Date Time Source
KUVA TAF UTC NOAA

Error!

Example: see airport list